Agua Santa, Brazil
Current Conditions -  °F | °C
As of 1:00 PM on Tuesday 21 Oct 2014 (Local Time) from SBPF Reporting Station
Clear Clear  
Wind Chill: 68°   Ceiling: Unl
Heat Index: 68°   Visibility: 6mi
Dew Point: 55°   Wind: 12mph
Humidity: 64%   Direction: 80°E
Pressure: 30.18"   Gusts: NA
Location:  28.18°S, 52.03°W
Report Text: SBPF 211500Z 08010KT CAVOK 20/13 Q1022
Loading
Personal Weather Stations






























Interactive Weather Map
Tropical Storm Tracking
New forecast layout! Learn more

10-Day Weather Forecast

Advertisements
Track Severe Weather on mobile